sensor_id;sensor_type;location;lat;lon;timestamp;pressure;altitude;pressure_sealevel;temperature;humidity
69784;BME280;57054;51.978;4.498;2022-09-09T00:00:15;100719.53;;;17.55;76.93
69784;BME280;57054;51.978;4.498;2022-09-09T00:02:49;100726.53;;;17.56;77.00
69784;BME280;57054;51.978;4.498;2022-09-09T00:05:26;100716.03;;;17.54;77.10
69784;BME280;57054;51.978;4.498;2022-09-09T00:07:55;100716.16;;;17.53;77.00
69784;BME280;57054;51.978;4.498;2022-09-09T00:10:30;100723.16;;;17.54;76.88
69784;BME280;57054;51.978;4.498;2022-09-09T00:16:19;100712.75;;;17.51;76.97
69784;BME280;57054;51.978;4.498;2022-09-09T00:21:45;100702.38;;;17.48;77.38
69784;BME280;57054;51.978;4.498;2022-09-09T00:24:26;100706.00;;;17.46;77.27
69784;BME280;57054;51.978;4.498;2022-09-09T00:27:00;100706.13;;;17.45;77.25
69784;BME280;57054;51.978;4.498;2022-09-09T00:29:33;100700.91;;;17.43;77.07
69784;BME280;57054;51.978;4.498;2022-09-09T00:32:11;100696.56;;;17.42;77.46
69784;BME280;57054;51.978;4.498;2022-09-09T00:34:43;100700.19;;;17.41;77.45
69784;BME280;57054;51.978;4.498;2022-09-09T00:37:09;100699.34;;;17.41;77.58
69784;BME280;57054;51.978;4.498;2022-09-09T00:39:39;100692.47;;;17.38;77.58
69784;BME280;57054;51.978;4.498;2022-09-09T00:42:20;100690.78;;;17.37;77.62
69784;BME280;57054;51.978;4.498;2022-09-09T00:44:53;100686.44;;;17.36;77.59
69784;BME280;57054;51.978;4.498;2022-09-09T00:47:31;100686.53;;;17.35;77.69
69784;BME280;57054;51.978;4.498;2022-09-09T00:52:46;100690.25;;;17.32;77.74
69784;BME280;57054;51.978;4.498;2022-09-09T00:55:41;100685.06;;;17.31;77.73
69784;BME280;57054;51.978;4.498;2022-09-09T00:58:09;100688.66;;;17.30;77.81
69784;BME280;57054;51.978;4.498;2022-09-09T01:00:49;100687.00;;;17.29;77.75
69784;BME280;57054;51.978;4.498;2022-09-09T01:04:04;100685.28;;;17.27;77.80
69784;BME280;57054;51.978;4.498;2022-09-09T01:06:43;100681.06;;;17.25;77.86
69784;BME280;57054;51.978;4.498;2022-09-09T01:09:32;100675.88;;;17.23;77.82
69784;BME280;57054;51.978;4.498;2022-09-09T01:12:14;100674.06;;;17.24;77.84
69784;BME280;57054;51.978;4.498;2022-09-09T01:14:44;100669.03;;;17.21;77.83
69784;BME280;57054;51.978;4.498;2022-09-09T01:17:17;100674.31;;;17.21;77.95
69784;BME280;57054;51.978;4.498;2022-09-09T01:25:22;100661.28;;;17.18;77.99
69784;BME280;57054;51.978;4.498;2022-09-09T01:27:54;100663.09;;;17.17;78.23
69784;BME280;57054;51.978;4.498;2022-09-09T01:30:22;100664.03;;;17.16;78.27
69784;BME280;57054;51.978;4.498;2022-09-09T01:32:54;100665.84;;;17.16;78.31
69784;BME280;57054;51.978;4.498;2022-09-09T01:38:11;100660.66;;;17.14;78.55
69784;BME280;57054;51.978;4.498;2022-09-09T01:40:37;100655.47;;;17.13;78.19
69784;BME280;57054;51.978;4.498;2022-09-09T01:43:03;100657.28;;;17.12;78.33
69784;BME280;57054;51.978;4.498;2022-09-09T01:45:29;100646.81;;;17.11;78.35
69784;BME280;57054;51.978;4.498;2022-09-09T01:47:55;100648.59;;;17.10;78.34
69784;BME280;57054;51.978;4.498;2022-09-09T01:50:21;100642.44;;;17.10;78.28
69784;BME280;57054;51.978;4.498;2022-09-09T01:52:50;100647.00;;;17.07;78.37
69784;BME280;57054;51.978;4.498;2022-09-09T01:55:21;100648.72;;;17.08;78.16
69784;BME280;57054;51.978;4.498;2022-09-09T01:58:03;100647.13;;;17.06;78.37
69784;BME280;57054;51.978;4.498;2022-09-09T02:00:32;100649.75;;;17.06;78.50
69784;BME280;57054;51.978;4.498;2022-09-09T02:05:40;100649.03;;;17.04;78.21
69784;BME280;57054;51.978;4.498;2022-09-09T02:11:11;100634.22;;;17.01;78.19
69784;BME280;57054;51.978;4.498;2022-09-09T02:13:39;100642.16;;;17.01;78.42
69784;BME280;57054;51.978;4.498;2022-09-09T02:16:08;100637.91;;;16.99;78.31
69784;BME280;57054;51.978;4.498;2022-09-09T02:21:07;100630.97;;;16.98;78.57
69784;BME280;57054;51.978;4.498;2022-09-09T02:23:34;100638.06;;;16.97;78.33
69784;BME280;57054;51.978;4.498;2022-09-09T02:26:01;100625.78;;;16.96;78.46
69784;BME280;57054;51.978;4.498;2022-09-09T02:28:30;100618.78;;;16.95;78.52
69784;BME280;57054;51.978;4.498;2022-09-09T02:30:57;100617.94;;;16.95;78.34
69784;BME280;57054;51.978;4.498;2022-09-09T02:33:30;100611.81;;;16.94;78.21
69784;BME280;57054;51.978;4.498;2022-09-09T02:35:59;100604.81;;;16.93;78.25
69784;BME280;57054;51.978;4.498;2022-09-09T02:38:29;100605.78;;;16.92;78.30
69784;BME280;57054;51.978;4.498;2022-09-09T02:40:57;100604.09;;;16.91;78.28
69784;BME280;57054;51.978;4.498;2022-09-09T02:43:23;100604.91;;;16.92;78.33
69784;BME280;57054;51.978;4.498;2022-09-09T02:45:59;100602.41;;;16.90;78.25
69784;BME280;57054;51.978;4.498;2022-09-09T02:51:00;100602.50;;;16.88;78.47
69784;BME280;57054;51.978;4.498;2022-09-09T02:56:15;100601.78;;;16.86;78.35
69784;BME280;57054;51.978;4.498;2022-09-09T02:58:42;100612.47;;;16.85;78.33
69784;BME280;57054;51.978;4.498;2022-09-09T03:01:08;100603.66;;;16.84;78.29
69784;BME280;57054;51.978;4.498;2022-09-09T03:03:33;100610.75;;;16.84;78.13
69784;BME280;57054;51.978;4.498;2022-09-09T03:05:59;100604.63;;;16.83;78.32
69784;BME280;57054;51.978;4.498;2022-09-09T03:08:24;100592.31;;;16.82;78.34
69784;BME280;57054;51.978;4.498;2022-09-09T03:10:50;100596.03;;;16.80;78.28
69784;BME280;57054;51.978;4.498;2022-09-09T03:13:15;100592.44;;;16.81;78.11
69784;BME280;57054;51.978;4.498;2022-09-09T03:15:41;100589.91;;;16.79;78.23
69784;BME280;57054;51.978;4.498;2022-09-09T03:18:07;100581.97;;;16.79;78.10
69784;BME280;57054;51.978;4.498;2022-09-09T03:20:32;100582.81;;;16.80;78.35
69784;BME280;57054;51.978;4.498;2022-09-09T03:22:59;100584.63;;;16.79;78.07
69784;BME280;57054;51.978;4.498;2022-09-09T03:25:25;100589.91;;;16.79;78.07
69784;BME280;57054;51.978;4.498;2022-09-09T03:27:53;100581.97;;;16.79;78.19
69784;BME280;57054;51.978;4.498;2022-09-09T03:30:20;100579.34;;;16.79;77.84
69784;BME280;57054;51.978;4.498;2022-09-09T03:32:46;100581.97;;;16.79;78.04
69784;BME280;57054;51.978;4.498;2022-09-09T03:35:11;100582.91;;;16.78;78.12
69784;BME280;57054;51.978;4.498;2022-09-09T03:37:37;100580.28;;;16.78;78.04
69784;BME280;57054;51.978;4.498;2022-09-09T03:40:04;100578.59;;;16.77;78.14
69784;BME280;57054;51.978;4.498;2022-09-09T03:42:29;100583.03;;;16.77;78.02
69784;BME280;57054;51.978;4.498;2022-09-09T03:44:56;100583.13;;;16.75;77.95
69784;BME280;57054;51.978;4.498;2022-09-09T03:47:23;100580.47;;;16.75;77.58
69784;BME280;57054;51.978;4.498;2022-09-09T03:49:48;100580.47;;;16.75;77.76
69784;BME280;57054;51.978;4.498;2022-09-09T03:52:15;100583.13;;;16.75;77.73
69784;BME280;57054;51.978;4.498;2022-09-09T03:54:40;100582.41;;;16.73;77.78
69784;BME280;57054;51.978;4.498;2022-09-09T03:57:08;100582.28;;;16.75;77.86
69784;BME280;57054;51.978;4.498;2022-09-09T03:59:34;100584.09;;;16.74;77.70
69784;BME280;57054;51.978;4.498;2022-09-09T04:02:00;100573.63;;;16.73;77.54
69784;BME280;57054;51.978;4.498;2022-09-09T04:04:25;100569.28;;;16.72;77.69
69784;BME280;57054;51.978;4.498;2022-09-09T04:06:52;100571.91;;;16.72;77.72
69784;BME280;57054;51.978;4.498;2022-09-09T04:09:17;100568.53;;;16.69;77.83
69784;BME280;57054;51.978;4.498;2022-09-09T04:11:43;100573.72;;;16.71;77.76
69784;BME280;57054;51.978;4.498;2022-09-09T04:14:08;100563.25;;;16.69;77.67
69784;BME280;57054;51.978;4.498;2022-09-09T04:16:34;100561.59;;;16.68;77.80
69784;BME280;57054;51.978;4.498;2022-09-09T04:19:02;100568.53;;;16.69;77.86
69784;BME280;57054;51.978;4.498;2022-09-09T04:21:29;100558.06;;;16.68;77.72
69784;BME280;57054;51.978;4.498;2022-09-09T04:23:55;100551.94;;;16.67;77.59
69784;BME280;57054;51.978;4.498;2022-09-09T04:26:20;100550.13;;;16.68;77.60
69784;BME280;57054;51.978;4.498;2022-09-09T04:28:46;100551.94;;;16.67;77.54
69784;BME280;57054;51.978;4.498;2022-09-09T04:31:18;100552.06;;;16.66;77.61
69784;BME280;57054;51.978;4.498;2022-09-09T04:33:45;100550.28;;;16.66;77.70
69784;BME280;57054;51.978;4.498;2022-09-09T04:36:11;100548.56;;;16.65;77.90
69784;BME280;57054;51.978;4.498;2022-09-09T04:38:37;100553.84;;;16.65;77.75
69784;BME280;57054;51.978;4.498;2022-09-09T04:41:03;100541.59;;;16.64;77.57
69784;BME280;57054;51.978;4.498;2022-09-09T04:43:29;100532.81;;;16.64;77.77
69784;BME280;57054;51.978;4.498;2022-09-09T04:45:56;100540.75;;;16.64;77.81
69784;BME280;57054;51.978;4.498;2022-09-09T04:48:21;100545.19;;;16.63;77.68
69784;BME280;57054;51.978;4.498;2022-09-09T04:51:08;100547.09;;;16.61;77.93
69784;BME280;57054;51.978;4.498;2022-09-09T04:53:35;100538.34;;;16.61;77.81
69784;BME280;57054;51.978;4.498;2022-09-09T04:56:05;100538.44;;;16.59;78.17
69784;BME280;57054;51.978;4.498;2022-09-09T04:58:32;100538.44;;;16.59;77.97
69784;BME280;57054;51.978;4.498;2022-09-09T05:01:05;100534.09;;;16.58;78.08
69784;BME280;57054;51.978;4.498;2022-09-09T05:03:31;100537.72;;;16.57;78.08
69784;BME280;57054;51.978;4.498;2022-09-09T05:06:23;100541.19;;;16.58;78.06
69784;BME280;57054;51.978;4.498;2022-09-09T05:08:49;100542.13;;;16.57;78.08
69784;BME280;57054;51.978;4.498;2022-09-09T05:11:27;100539.59;;;16.55;78.19
69784;BME280;57054;51.978;4.498;2022-09-09T05:13:53;100537.91;;;16.54;78.41
69784;BME280;57054;51.978;4.498;2022-09-09T05:16:19;100539.81;;;16.52;78.18
69784;BME280;57054;51.978;4.498;2022-09-09T05:18:45;100538.13;;;16.51;78.25
69784;BME280;57054;51.978;4.498;2022-09-09T05:21:12;100528.53;;;16.50;78.19
69784;BME280;57054;51.978;4.498;2022-09-09T05:23:38;100530.28;;;16.49;78.13
69784;BME280;57054;51.978;4.498;2022-09-09T05:26:04;100524.19;;;16.49;78.03
69784;BME280;57054;51.978;4.498;2022-09-09T05:28:30;100521.53;;;16.49;78.05
69784;BME280;57054;51.978;4.498;2022-09-09T05:31:00;100527.66;;;16.49;77.77
69784;BME280;57054;51.978;4.498;2022-09-09T05:33:29;100522.38;;;16.49;77.80
69784;BME280;57054;51.978;4.498;2022-09-09T05:35:59;100528.63;;;16.48;77.93
69784;BME280;57054;51.978;4.498;2022-09-09T05:38:27;100530.28;;;16.49;78.11
69784;BME280;57054;51.978;4.498;2022-09-09T05:40:53;100532.94;;;16.49;78.17
69784;BME280;57054;51.978;4.498;2022-09-09T05:43:19;100539.09;;;16.50;77.77
69784;BME280;57054;51.978;4.498;2022-09-09T05:45:47;100539.09;;;16.50;77.94
69784;BME280;57054;51.978;4.498;2022-09-09T05:48:16;100544.38;;;16.50;77.88
69784;BME280;57054;51.978;4.498;2022-09-09T05:50:42;100539.09;;;16.50;77.79
69784;BME280;57054;51.978;4.498;2022-09-09T05:53:08;100543.50;;;16.49;77.91
69784;BME280;57054;51.978;4.498;2022-09-09T05:55:35;100540.75;;;16.51;77.99
69784;BME280;57054;51.978;4.498;2022-09-09T05:58:01;100543.41;;;16.51;78.12
69784;BME280;57054;51.978;4.498;2022-09-09T06:00:26;100547.88;;;16.50;77.89
69784;BME280;57054;51.978;4.498;2022-09-09T06:02:52;100547.88;;;16.50;78.01
69784;BME280;57054;51.978;4.498;2022-09-09T06:05:19;100545.22;;;16.50;77.91
69784;BME280;57054;51.978;4.498;2022-09-09T06:07:44;100547.03;;;16.50;78.06
69784;BME280;57054;51.978;4.498;2022-09-09T06:10:11;100553.16;;;16.50;78.28
69784;BME280;57054;51.978;4.498;2022-09-09T06:12:39;100551.34;;;16.51;78.19
69784;BME280;57054;51.978;4.498;2022-09-09T06:15:05;100550.41;;;16.52;78.05
69784;BME280;57054;51.978;4.498;2022-09-09T06:17:31;100550.41;;;16.52;77.91
69784;BME280;57054;51.978;4.498;2022-09-09T06:19:56;100549.53;;;16.51;78.35
69784;BME280;57054;51.978;4.498;2022-09-09T06:22:22;100546.78;;;16.53;78.07
69784;BME280;57054;51.978;4.498;2022-09-09T06:24:47;100551.13;;;16.54;78.13
69784;BME280;57054;51.978;4.498;2022-09-09T06:27:13;100554.63;;;16.55;78.43
69784;BME280;57054;51.978;4.498;2022-09-09T06:29:38;100551.88;;;16.56;78.29
69784;BME280;57054;51.978;4.498;2022-09-09T06:32:06;100550.16;;;16.55;77.93
69784;BME280;57054;51.978;4.498;2022-09-09T06:34:34;100559.81;;;16.56;78.01
69784;BME280;57054;51.978;4.498;2022-09-09T06:37:00;100557.16;;;16.56;77.91
69784;BME280;57054;51.978;4.498;2022-09-09T06:39:26;100545.00;;;16.54;77.94
69784;BME280;57054;51.978;4.498;2022-09-09T06:41:51;100562.66;;;16.53;78.73
69784;BME280;57054;51.978;4.498;2022-09-09T06:44:18;100553.78;;;16.54;78.79
69784;BME280;57054;51.978;4.498;2022-09-09T06:46:44;100545.84;;;16.54;78.57
69784;BME280;57054;51.978;4.498;2022-09-09T06:49:12;100546.78;;;16.53;78.66
69784;BME280;57054;51.978;4.498;2022-09-09T06:51:38;100553.78;;;16.54;78.82
69784;BME280;57054;51.978;4.498;2022-09-09T06:54:12;100551.97;;;16.55;79.05
69784;BME280;57054;51.978;4.498;2022-09-09T06:56:39;100552.94;;;16.54;79.00
69784;BME280;57054;51.978;4.498;2022-09-09T06:59:09;100545.84;;;16.54;78.81
69784;BME280;57054;51.978;4.498;2022-09-09T07:01:39;100552.81;;;16.55;78.86
69784;BME280;57054;51.978;4.498;2022-09-09T07:04:12;100550.06;;;16.57;78.74
69784;BME280;57054;51.978;4.498;2022-09-09T07:06:41;100554.31;;;16.59;78.74
69784;BME280;57054;51.978;4.498;2022-09-09T07:09:09;100548.16;;;16.59;78.49
69784;BME280;57054;51.978;4.498;2022-09-09T07:11:43;100548.16;;;16.59;78.81
69784;BME280;57054;51.978;4.498;2022-09-09T07:14:10;100550.69;;;16.60;78.96
69784;BME280;57054;51.978;4.498;2022-09-09T07:16:41;100548.03;;;16.60;78.88
69784;BME280;57054;51.978;4.498;2022-09-09T07:19:07;100545.41;;;16.60;78.55
69784;BME280;57054;51.978;4.498;2022-09-09T07:21:33;100547.94;;;16.62;79.00
69784;BME280;57054;51.978;4.498;2022-09-09T07:23:59;100540.00;;;16.62;78.91
69784;BME280;57054;51.978;4.498;2022-09-09T07:26:29;100550.59;;;16.62;78.79
69784;BME280;57054;51.978;4.498;2022-09-09T07:28:56;100548.69;;;16.64;79.05
69784;BME280;57054;51.978;4.498;2022-09-09T07:31:30;100544.34;;;16.63;78.71
69784;BME280;57054;51.978;4.498;2022-09-09T07:33:56;100539.91;;;16.63;78.61
69784;BME280;57054;51.978;4.498;2022-09-09T07:36:24;100543.38;;;16.64;78.64
69784;BME280;57054;51.978;4.498;2022-09-09T07:38:56;100546.03;;;16.64;78.64
69784;BME280;57054;51.978;4.498;2022-09-09T07:41:27;100554.81;;;16.64;78.99
69784;BME280;57054;51.978;4.498;2022-09-09T07:43:53;100557.56;;;16.63;79.16
69784;BME280;57054;51.978;4.498;2022-09-09T07:46:20;100546.13;;;16.62;78.89
69784;BME280;57054;51.978;4.498;2022-09-09T07:48:51;100550.47;;;16.63;78.95
69784;BME280;57054;51.978;4.498;2022-09-09T07:51:19;100549.50;;;16.64;78.96
69784;BME280;57054;51.978;4.498;2022-09-09T07:53:46;100544.22;;;16.64;78.63
69784;BME280;57054;51.978;4.498;2022-09-09T07:56:15;100548.56;;;16.65;78.63
69784;BME280;57054;51.978;4.498;2022-09-09T07:58:44;100549.31;;;16.67;78.50
69784;BME280;57054;51.978;4.498;2022-09-09T08:01:12;100544.00;;;16.67;79.01
69784;BME280;57054;51.978;4.498;2022-09-09T08:03:38;100549.31;;;16.67;78.96
69784;BME280;57054;51.978;4.498;2022-09-09T08:06:06;100551.13;;;16.67;78.80
69784;BME280;57054;51.978;4.498;2022-09-09T08:08:32;100546.66;;;16.67;78.47
69784;BME280;57054;51.978;4.498;2022-09-09T08:11:11;100545.72;;;16.68;78.91
69784;BME280;57054;51.978;4.498;2022-09-09T08:13:38;100549.09;;;16.70;78.97
69784;BME280;57054;51.978;4.498;2022-09-09T08:16:13;100553.56;;;16.70;79.04
69784;BME280;57054;51.978;4.498;2022-09-09T08:18:42;100542.97;;;16.70;79.12
69784;BME280;57054;51.978;4.498;2022-09-09T08:21:13;100556.94;;;16.72;78.95
69784;BME280;57054;51.978;4.498;2022-09-09T08:23:40;100555.13;;;16.73;78.83
69784;BME280;57054;51.978;4.498;2022-09-09T08:26:18;100552.47;;;16.73;78.89
69784;BME280;57054;51.978;4.498;2022-09-09T08:28:46;100552.47;;;16.73;78.71
69784;BME280;57054;51.978;4.498;2022-09-09T08:31:39;100555.84;;;16.75;78.59
69784;BME280;57054;51.978;4.498;2022-09-09T08:34:06;100562.22;;;16.72;78.86
69784;BME280;57054;51.978;4.498;2022-09-09T08:36:41;100556.94;;;16.72;79.01
69784;BME280;57054;51.978;4.498;2022-09-09T08:39:08;100560.31;;;16.74;78.99
69784;BME280;57054;51.978;4.498;2022-09-09T08:58:33;100565.50;;;16.76;79.07
69784;BME280;57054;51.978;4.498;2022-09-09T09:11:58;100581.25;;;16.77;78.84
69784;BME280;57054;51.978;4.498;2022-09-09T09:14:30;100574.16;;;16.78;78.90
69784;BME280;57054;51.978;4.498;2022-09-09T09:17:21;100573.19;;;16.79;79.19
69784;BME280;57054;51.978;4.498;2022-09-09T09:20:13;100572.34;;;16.78;79.12
69784;BME280;57054;51.978;4.498;2022-09-09T09:22:48;100575.00;;;16.78;79.12
69784;BME280;57054;51.978;4.498;2022-09-09T09:25:23;100574.03;;;16.79;78.98
69784;BME280;57054;51.978;4.498;2022-09-09T09:28:20;100583.66;;;16.80;79.37
69784;BME280;57054;51.978;4.498;2022-09-09T09:31:10;100572.25;;;16.80;79.14
69784;BME280;57054;51.978;4.498;2022-09-09T09:34:01;100568.53;;;16.82;79.33
69784;BME280;57054;51.978;4.498;2022-09-09T09:36:56;100566.63;;;16.84;79.11
69784;BME280;57054;51.978;4.498;2022-09-09T09:39:34;100561.47;;;16.83;79.45
69784;BME280;57054;51.978;4.498;2022-09-09T09:42:19;100560.41;;;16.85;79.58
69784;BME280;57054;51.978;4.498;2022-09-09T09:44:48;100558.69;;;16.84;79.43
69784;BME280;57054;51.978;4.498;2022-09-09T09:47:28;100556.94;;;16.85;79.81
69784;BME280;57054;51.978;4.498;2022-09-09T09:50:01;100556.81;;;16.86;79.79
69784;BME280;57054;51.978;4.498;2022-09-09T09:52:33;100557.56;;;16.88;80.23
69784;BME280;57054;51.978;4.498;2022-09-09T09:55:03;100564.50;;;16.89;80.42
69784;BME280;57054;51.978;4.498;2022-09-09T09:57:36;100555.63;;;16.91;81.03
69784;BME280;57054;51.978;4.498;2022-09-09T10:00:13;100559.13;;;16.91;80.69
69784;BME280;57054;51.978;4.498;2022-09-09T10:02:41;100557.22;;;16.93;80.66
69784;BME280;57054;51.978;4.498;2022-09-09T10:07:46;100555.28;;;16.95;80.70
69784;BME280;57054;51.978;4.498;2022-09-09T10:10:16;100557.84;;;16.97;80.49
69784;BME280;57054;51.978;4.498;2022-09-09T10:12:58;100558.69;;;16.97;80.42
69784;BME280;57054;51.978;4.498;2022-09-09T10:18:58;100571.94;;;16.97;80.67
69784;BME280;57054;51.978;4.498;2022-09-09T10:21:48;100567.56;;;16.96;81.36
69784;BME280;57054;51.978;4.498;2022-09-09T10:35:19;100566.38;;;17.00;82.24
69784;BME280;57054;51.978;4.498;2022-09-09T10:41:05;100560.88;;;17.03;82.14
69784;BME280;57054;51.978;4.498;2022-09-09T10:49:44;100560.78;;;17.05;82.34
69784;BME280;57054;51.978;4.498;2022-09-09T10:52:39;100561.63;;;17.05;82.47
69784;BME280;57054;51.978;4.498;2022-09-09T10:55:14;100569.34;;;17.08;82.35
69784;BME280;57054;51.978;4.498;2022-09-09T10:57:49;100559.59;;;17.09;82.34
69784;BME280;57054;51.978;4.498;2022-09-09T11:00:24;100553.38;;;17.10;82.11
69784;BME280;57054;51.978;4.498;2022-09-09T11:03:00;100558.50;;;17.12;82.72
69784;BME280;57054;51.978;4.498;2022-09-09T11:05:42;100557.47;;;17.14;83.01
69784;BME280;57054;51.978;4.498;2022-09-09T11:08:19;100557.34;;;17.16;82.77
69784;BME280;57054;51.978;4.498;2022-09-09T11:11:02;100557.25;;;17.17;83.03
69784;BME280;57054;51.978;4.498;2022-09-09T11:16:33;100550.88;;;17.20;83.17
69784;BME280;57054;51.978;4.498;2022-09-09T11:19:16;100548.13;;;17.21;83.52
69784;BME280;57054;51.978;4.498;2022-09-09T11:21:53;100557.75;;;17.22;83.73
69784;BME280;57054;51.978;4.498;2022-09-09T11:26:54;100556.44;;;17.28;84.23
69784;BME280;57054;51.978;4.498;2022-09-09T11:29:26;100554.66;;;17.29;85.35
69784;BME280;57054;51.978;4.498;2022-09-09T11:37:33;100559.84;;;17.30;85.08
69784;BME280;57054;51.978;4.498;2022-09-09T11:40:25;100554.56;;;17.30;84.82
69784;BME280;57054;51.978;4.498;2022-09-09T11:45:34;100556.22;;;17.31;84.18
69784;BME280;57054;51.978;4.498;2022-09-09T11:48:01;100570.19;;;17.33;84.42
69784;BME280;57054;51.978;4.498;2022-09-09T11:50:33;100572.00;;;17.33;84.55
69784;BME280;57054;51.978;4.498;2022-09-09T11:53:20;100575.59;;;17.32;84.46
69784;BME280;57054;51.978;4.498;2022-09-09T11:55:59;100565.88;;;17.32;84.34
69784;BME280;57054;51.978;4.498;2022-09-09T11:58:25;100565.88;;;17.32;84.21
69784;BME280;57054;51.978;4.498;2022-09-09T12:00:50;100570.19;;;17.33;84.16
69784;BME280;57054;51.978;4.498;2022-09-09T12:05:58;100569.34;;;17.33;83.99
69784;BME280;57054;51.978;4.498;2022-09-09T12:08:27;100568.50;;;17.32;83.91
69784;BME280;57054;51.978;4.498;2022-09-09T12:10:58;100565.88;;;17.32;83.91
69784;BME280;57054;51.978;4.498;2022-09-09T12:13:26;100579.00;;;17.34;84.15
69784;BME280;57054;51.978;4.498;2022-09-09T12:15:52;100571.88;;;17.34;83.97
69784;BME280;57054;51.978;4.498;2022-09-09T12:18:35;100574.53;;;17.34;84.07
69784;BME280;57054;51.978;4.498;2022-09-09T12:24:03;100574.44;;;17.36;83.92
69784;BME280;57054;51.978;4.498;2022-09-09T12:26:47;100573.56;;;17.35;84.02
69784;BME280;57054;51.978;4.498;2022-09-09T12:34:44;100578.03;;;17.35;83.65
69784;BME280;57054;51.978;4.498;2022-09-09T12:37:35;100580.66;;;17.35;83.49
69784;BME280;57054;51.978;4.498;2022-09-09T12:42:29;100582.59;;;17.33;84.58
69784;BME280;57054;51.978;4.498;2022-09-09T12:44:59;100584.28;;;17.34;84.42
69784;BME280;57054;51.978;4.498;2022-09-09T12:47:38;100578.22;;;17.32;84.54
69784;BME280;57054;51.978;4.498;2022-09-09T12:50:19;100582.59;;;17.33;84.28
69784;BME280;57054;51.978;4.498;2022-09-09T12:52:47;100583.41;;;17.33;84.65
69784;BME280;57054;51.978;4.498;2022-09-09T12:55:18;100580.66;;;17.35;84.58
69784;BME280;57054;51.978;4.498;2022-09-09T12:57:47;100581.63;;;17.34;84.43
69784;BME280;57054;51.978;4.498;2022-09-09T13:00:23;100582.47;;;17.34;84.36
69784;BME280;57054;51.978;4.498;2022-09-09T13:03:00;100578.84;;;17.35;83.84
69784;BME280;57054;51.978;4.498;2022-09-09T13:05:37;100583.22;;;17.36;84.16
69784;BME280;57054;51.978;4.498;2022-09-09T13:08:05;100584.03;;;17.37;84.05
69784;BME280;57054;51.978;4.498;2022-09-09T13:10:36;100584.91;;;17.37;84.17
69784;BME280;57054;51.978;4.498;2022-09-09T13:13:13;100583.00;;;17.39;84.04
69784;BME280;57054;51.978;4.498;2022-09-09T13:15:39;100581.06;;;17.41;84.05
69784;BME280;57054;51.978;4.498;2022-09-09T13:18:10;100588.03;;;17.42;85.09
69784;BME280;57054;51.978;4.498;2022-09-09T13:20:37;100593.34;;;17.42;85.58
69784;BME280;57054;51.978;4.498;2022-09-09T13:23:02;100597.56;;;17.45;85.35
69784;BME280;57054;51.978;4.498;2022-09-09T13:25:28;100594.94;;;17.45;85.46
69784;BME280;57054;51.978;4.498;2022-09-09T13:28:01;100601.06;;;17.45;85.17
69784;BME280;57054;51.978;4.498;2022-09-09T13:30:36;100601.06;;;17.45;85.08
69784;BME280;57054;51.978;4.498;2022-09-09T13:35:31;100595.75;;;17.45;84.41
69784;BME280;57054;51.978;4.498;2022-09-09T13:37:57;100600.13;;;17.46;84.04
69784;BME280;57054;51.978;4.498;2022-09-09T13:40:23;100601.78;;;17.48;84.57
69784;BME280;57054;51.978;4.498;2022-09-09T13:42:56;100601.78;;;17.48;85.09
69784;BME280;57054;51.978;4.498;2022-09-09T13:45:25;100617.66;;;17.48;85.00
69784;BME280;57054;51.978;4.498;2022-09-09T13:47:52;100615.13;;;17.46;84.91
69784;BME280;57054;51.978;4.498;2022-09-09T13:50:27;100613.47;;;17.45;84.58
69784;BME280;57054;51.978;4.498;2022-09-09T13:52:57;100609.00;;;17.45;84.26
69784;BME280;57054;51.978;4.498;2022-09-09T13:55:27;100606.34;;;17.45;84.26
69784;BME280;57054;51.978;4.498;2022-09-09T14:00:22;100587.81;;;17.45;84.38
69784;BME280;57054;51.978;4.498;2022-09-09T14:02:49;100590.47;;;17.45;84.50
69784;BME280;57054;51.978;4.498;2022-09-09T14:05:15;100584.34;;;17.45;84.15
69784;BME280;57054;51.978;4.498;2022-09-09T14:07:41;100589.63;;;17.45;84.17
69784;BME280;57054;51.978;4.498;2022-09-09T14:10:07;100587.81;;;17.45;84.17
69784;BME280;57054;51.978;4.498;2022-09-09T14:12:33;100592.38;;;17.43;84.28
69784;BME280;57054;51.978;4.498;2022-09-09T14:14:59;100595.88;;;17.44;84.24
69784;BME280;57054;51.978;4.498;2022-09-09T14:17:27;100587.94;;;17.44;84.00
69784;BME280;57054;51.978;4.498;2022-09-09T14:19:56;100589.75;;;17.43;84.03
69784;BME280;57054;51.978;4.498;2022-09-09T14:22:22;100583.59;;;17.43;83.80
69784;BME280;57054;51.978;4.498;2022-09-09T14:24:48;100589.75;;;17.43;83.70
69784;BME280;57054;51.978;4.498;2022-09-09T14:27:14;100592.38;;;17.43;83.52
69784;BME280;57054;51.978;4.498;2022-09-09T14:29:40;100582.63;;;17.44;83.64
69784;BME280;57054;51.978;4.498;2022-09-09T14:32:05;100589.63;;;17.45;83.62
69784;BME280;57054;51.978;4.498;2022-09-09T14:34:30;100592.16;;;17.46;84.03
69784;BME280;57054;51.978;4.498;2022-09-09T14:36:58;100598.31;;;17.47;83.97
69784;BME280;57054;51.978;4.498;2022-09-09T14:39:23;100599.97;;;17.48;84.08
69784;BME280;57054;51.978;4.498;2022-09-09T14:41:49;100603.50;;;17.49;84.49
69784;BME280;57054;51.978;4.498;2022-09-09T14:44:14;100602.41;;;17.51;84.01
69784;BME280;57054;51.978;4.498;2022-09-09T14:46:41;100605.78;;;17.53;84.00
69784;BME280;57054;51.978;4.498;2022-09-09T14:49:08;100613.50;;;17.56;85.85
69784;BME280;57054;51.978;4.498;2022-09-09T14:51:33;100614.25;;;17.58;86.00
69784;BME280;57054;51.978;4.498;2022-09-09T14:53:59;100607.13;;;17.59;85.96
69784;BME280;57054;51.978;4.498;2022-09-09T14:56:27;100613.19;;;17.61;86.03
69784;BME280;57054;51.978;4.498;2022-09-09T14:58:55;100608.84;;;17.60;85.26
69784;BME280;57054;51.978;4.498;2022-09-09T15:01:21;100607.75;;;17.62;84.64
69784;BME280;57054;51.978;4.498;2022-09-09T15:04:05;100610.41;;;17.62;84.72